sensor_id;sensor_type;location;lat;lon;timestamp;pressure;altitude;pressure_sealevel;temperature;humidity
42859;BME280;28505;56.970;40.998;2023-12-20T00:00:09;97899.13;;;1.14;100.00
42859;BME280;28505;56.970;40.998;2023-12-20T00:05:32;97901.22;;;1.17;100.00
42859;BME280;28505;56.970;40.998;2023-12-20T00:10:54;97904.59;;;0.99;100.00
42859;BME280;28505;56.970;40.998;2023-12-20T00:16:17;97908.63;;;0.91;100.00
42859;BME280;28505;56.970;40.998;2023-12-20T00:21:39;97898.00;;;0.67;100.00
42859;BME280;28505;56.970;40.998;2023-12-20T00:27:02;97909.91;;;0.69;100.00
42859;BME280;28505;56.970;40.998;2023-12-20T00:32:24;97910.94;;;0.74;100.00
42859;BME280;28505;56.970;40.998;2023-12-20T00:37:46;97911.78;;;0.69;100.00
42859;BME280;28505;56.970;40.998;2023-12-20T00:43:09;97918.28;;;0.53;100.00
42859;BME280;28505;56.970;40.998;2023-12-20T00:48:31;97916.44;;;0.48;100.00
42859;BME280;28505;56.970;40.998;2023-12-20T00:53:53;97907.25;;;0.35;100.00
42859;BME280;28505;56.970;40.998;2023-12-20T00:59:16;97905.06;;;0.47;100.00
42859;BME280;28505;56.970;40.998;2023-12-20T01:04:41;97904.97;;;0.58;100.00
42859;BME280;28505;56.970;40.998;2023-12-20T01:10:04;97910.88;;;0.50;100.00
42859;BME280;28505;56.970;40.998;2023-12-20T01:15:28;97906.22;;;0.31;100.00
42859;BME280;28505;56.970;40.998;2023-12-20T01:20:50;97918.97;;;0.29;100.00
42859;BME280;28505;56.970;40.998;2023-12-20T01:26:12;97918.47;;;0.22;100.00
42859;BME280;28505;56.970;40.998;2023-12-20T01:31:34;97920.09;;;0.23;100.00
42859;BME280;28505;56.970;40.998;2023-12-20T01:36:57;97920.09;;;0.23;100.00
42859;BME280;28505;56.970;40.998;2023-12-20T01:42:19;97917.47;;;0.13;100.00
42859;BME280;28505;56.970;40.998;2023-12-20T01:47:41;97916.50;;;0.04;100.00
42859;BME280;28505;56.970;40.998;2023-12-20T01:53:07;97915.66;;;0.13;100.00
42859;BME280;28505;56.970;40.998;2023-12-20T01:58:31;97911.63;;;0.21;100.00
42859;BME280;28505;56.970;40.998;2023-12-20T02:03:54;97898.16;;;0.12;100.00
42859;BME280;28505;56.970;40.998;2023-12-20T02:09:20;97886.53;;;0.08;100.00
42859;BME280;28505;56.970;40.998;2023-12-20T02:14:43;97890.25;;;0.07;100.00
42859;BME280;28505;56.970;40.998;2023-12-20T02:20:06;97875.22;;;-0.08;100.00
42859;BME280;28505;56.970;40.998;2023-12-20T02:25:29;97877.88;;;-0.08;100.00
42859;BME280;28505;56.970;40.998;2023-12-20T02:30:51;97888.22;;;-0.06;100.00
42859;BME280;28505;56.970;40.998;2023-12-20T02:36:13;97894.31;;;-0.11;100.00
42859;BME280;28505;56.970;40.998;2023-12-20T02:41:36;97893.59;;;-0.27;100.00
42859;BME280;28505;56.970;40.998;2023-12-20T02:46:58;97896.00;;;-0.30;100.00
42859;BME280;28505;56.970;40.998;2023-12-20T02:52:22;97907.44;;;-0.35;100.00
42859;BME280;28505;56.970;40.998;2023-12-20T02:57:44;97899.19;;;-0.28;100.00
42859;BME280;28505;56.970;40.998;2023-12-20T03:03:07;97899.41;;;-0.19;100.00
42859;BME280;28505;56.970;40.998;2023-12-20T03:08:30;97900.16;;;-0.14;100.00
42859;BME280;28505;56.970;40.998;2023-12-20T03:13:52;97880.06;;;-0.20;100.00
42859;BME280;28505;56.970;40.998;2023-12-20T03:19:15;97879.03;;;-0.24;100.00
42859;BME280;28505;56.970;40.998;2023-12-20T03:24:39;97886.97;;;-0.24;100.00
42859;BME280;28505;56.970;40.998;2023-12-20T03:30:01;97884.00;;;-0.12;100.00
42859;BME280;28505;56.970;40.998;2023-12-20T03:35:24;97877.63;;;-0.11;100.00
42859;BME280;28505;56.970;40.998;2023-12-20T03:40:46;97870.34;;;0.10;100.00
42859;BME280;28505;56.970;40.998;2023-12-20T03:46:09;97876.72;;;0.09;100.00
42859;BME280;28505;56.970;40.998;2023-12-20T03:51:31;97883.78;;;0.23;100.00
42859;BME280;28505;56.970;40.998;2023-12-20T03:56:53;97868.81;;;0.04;100.00
42859;BME280;28505;56.970;40.998;2023-12-20T04:02:16;97870.47;;;-0.11;100.00
42859;BME280;28505;56.970;40.998;2023-12-20T04:07:40;97863.19;;;-0.29;100.00
42859;BME280;28505;56.970;40.998;2023-12-20T04:13:03;97867.22;;;-0.42;100.00
42859;BME280;28505;56.970;40.998;2023-12-20T04:18:26;97862.59;;;-0.21;100.00
42859;BME280;28505;56.970;40.998;2023-12-20T04:23:50;97866.56;;;-0.18;100.00
42859;BME280;28505;56.970;40.998;2023-12-20T04:29:12;97884.28;;;-0.14;100.00
42859;BME280;28505;56.970;40.998;2023-12-20T04:34:35;97884.50;;;-0.10;100.00
42859;BME280;28505;56.970;40.998;2023-12-20T04:40:00;97876.25;;;0.02;100.00
42859;BME280;28505;56.970;40.998;2023-12-20T04:45:23;97883.66;;;-0.01;100.00
42859;BME280;28505;56.970;40.998;2023-12-20T04:50:47;97873.59;;;0.02;100.00
42859;BME280;28505;56.970;40.998;2023-12-20T04:56:09;97872.72;;;0.11;100.00
42859;BME280;28505;56.970;40.998;2023-12-20T05:01:32;97868.75;;;0.14;100.00
42859;BME280;28505;56.970;40.998;2023-12-20T05:06:54;97874.97;;;0.28;100.00
42859;BME280;28505;56.970;40.998;2023-12-20T05:12:17;97870.28;;;0.20;100.00
42859;BME280;28505;56.970;40.998;2023-12-20T05:17:39;97883.00;;;0.18;100.00
42859;BME280;28505;56.970;40.998;2023-12-20T05:23:01;97879.66;;;0.07;100.00
42859;BME280;28505;56.970;40.998;2023-12-20T05:28:24;97877.81;;;0.03;100.00
42859;BME280;28505;56.970;40.998;2023-12-20T05:33:47;97870.97;;;-0.04;100.00
42859;BME280;28505;56.970;40.998;2023-12-20T05:39:10;97878.66;;;-0.02;100.00
42859;BME280;28505;56.970;40.998;2023-12-20T05:44:33;97879.44;;;-0.07;100.00
42859;BME280;28505;56.970;40.998;2023-12-20T05:49:59;97892.19;;;-0.09;100.00
42859;BME280;28505;56.970;40.998;2023-12-20T05:55:23;97896.91;;;-0.01;100.00
42859;BME280;28505;56.970;40.998;2023-12-20T06:00:45;97895.34;;;-0.07;100.00
42859;BME280;28505;56.970;40.998;2023-12-20T06:06:09;97900.66;;;-0.07;100.00
42859;BME280;28505;56.970;40.998;2023-12-20T06:11:37;97910.44;;;-0.07;100.00
42859;BME280;28505;56.970;40.998;2023-12-20T06:17:00;97906.75;;;-0.06;100.00
42859;BME280;28505;56.970;40.998;2023-12-20T06:22:23;97927.69;;;-0.10;100.00
42859;BME280;28505;56.970;40.998;2023-12-20T06:27:45;97933.81;;;-0.14;100.00
42859;BME280;28505;56.970;40.998;2023-12-20T06:33:08;97931.94;;;-0.14;100.00
42859;BME280;28505;56.970;40.998;2023-12-20T06:38:31;97928.19;;;-0.03;100.00
42859;BME280;28505;56.970;40.998;2023-12-20T06:43:54;97935.00;;;0.09;100.00
42859;BME280;28505;56.970;40.998;2023-12-20T06:49:16;97931.84;;;0.07;100.00
42859;BME280;28505;56.970;40.998;2023-12-20T06:54:39;97942.94;;;0.14;100.00
42859;BME280;28505;56.970;40.998;2023-12-20T07:00:02;97938.13;;;0.16;100.00
42859;BME280;28505;56.970;40.998;2023-12-20T07:05:27;97935.47;;;0.16;100.00
42859;BME280;28505;56.970;40.998;2023-12-20T07:10:50;97930.19;;;0.16;100.00
42859;BME280;28505;56.970;40.998;2023-12-20T07:16:12;97932.34;;;0.14;100.00
42859;BME280;28505;56.970;40.998;2023-12-20T07:21:35;97924.94;;;0.06;100.00
42859;BME280;28505;56.970;40.998;2023-12-20T07:26:57;97925.50;;;0.03;100.00
42859;BME280;28505;56.970;40.998;2023-12-20T07:32:19;97939.50;;;0.08;100.00
42859;BME280;28505;56.970;40.998;2023-12-20T07:37:41;97952.59;;;0.34;100.00
42859;BME280;28505;56.970;40.998;2023-12-20T07:43:04;97961.38;;;0.29;100.00
42859;BME280;28505;56.970;40.998;2023-12-20T07:48:26;97967.75;;;0.28;100.00
42859;BME280;28505;56.970;40.998;2023-12-20T07:53:51;97970.84;;;0.40;100.00
42859;BME280;28505;56.970;40.998;2023-12-20T07:59:14;97962.38;;;0.38;100.00
42859;BME280;28505;56.970;40.998;2023-12-20T08:04:50;97957.06;;;0.43;100.00
42859;BME280;28505;56.970;40.998;2023-12-20T08:10:12;97962.81;;;0.56;100.00
42859;BME280;28505;56.970;40.998;2023-12-20T08:15:37;97953.13;;;0.70;100.00
42859;BME280;28505;56.970;40.998;2023-12-20T08:21:01;97965.78;;;0.78;100.00
42859;BME280;28505;56.970;40.998;2023-12-20T08:26:23;97964.97;;;0.83;100.00
42859;BME280;28505;56.970;40.998;2023-12-20T08:31:46;97963.13;;;0.78;100.00
42859;BME280;28505;56.970;40.998;2023-12-20T08:37:09;97975.13;;;1.05;100.00
42859;BME280;28505;56.970;40.998;2023-12-20T08:42:31;97962.56;;;0.86;100.00
42859;BME280;28505;56.970;40.998;2023-12-20T08:47:54;97976.06;;;0.85;100.00
42859;BME280;28505;56.970;40.998;2023-12-20T08:53:20;97976.88;;;0.85;100.00
42859;BME280;28505;56.970;40.998;2023-12-20T08:58:42;97975.34;;;0.79;100.00
42859;BME280;28505;56.970;40.998;2023-12-20T09:04:05;97986.41;;;0.86;100.00
42859;BME280;28505;56.970;40.998;2023-12-20T09:09:29;97973.75;;;0.78;100.00
42859;BME280;28505;56.970;40.998;2023-12-20T09:14:54;97980.66;;;0.79;100.00
42859;BME280;28505;56.970;40.998;2023-12-20T09:20:17;97977.22;;;0.79;100.00
42859;BME280;28505;56.970;40.998;2023-12-20T09:25:42;97972.00;;;0.98;100.00
42859;BME280;28505;56.970;40.998;2023-12-20T09:31:05;97975.63;;;1.07;100.00
42859;BME280;28505;56.970;40.998;2023-12-20T09:36:28;97981.16;;;1.39;100.00
42859;BME280;28505;56.970;40.998;2023-12-20T09:42:04;97974.69;;;1.22;100.00
42859;BME280;28505;56.970;40.998;2023-12-20T09:47:26;97982.50;;;1.08;100.00
42859;BME280;28505;56.970;40.998;2023-12-20T09:52:51;97989.31;;;1.19;100.00
42859;BME280;28505;56.970;40.998;2023-12-20T09:58:14;97997.28;;;1.19;100.00
42859;BME280;28505;56.970;40.998;2023-12-20T10:03:39;98000.50;;;1.16;100.00
42859;BME280;28505;56.970;40.998;2023-12-20T10:09:03;97988.41;;;1.05;100.00
42859;BME280;28505;56.970;40.998;2023-12-20T10:14:37;97994.25;;;1.02;100.00
42859;BME280;28505;56.970;40.998;2023-12-20T10:20:02;97999.88;;;1.24;100.00
42859;BME280;28505;56.970;40.998;2023-12-20T10:25:25;97989.84;;;0.92;100.00
42859;BME280;28505;56.970;40.998;2023-12-20T10:30:48;97996.94;;;0.97;100.00
42859;BME280;28505;56.970;40.998;2023-12-20T10:36:10;97989.97;;;1.06;100.00
42859;BME280;28505;56.970;40.998;2023-12-20T10:41:36;97989.59;;;0.88;100.00
42859;BME280;28505;56.970;40.998;2023-12-20T10:47:04;97995.31;;;1.01;100.00
42859;BME280;28505;56.970;40.998;2023-12-20T10:52:27;97987.34;;;1.01;100.00
42859;BME280;28505;56.970;40.998;2023-12-20T10:57:52;97995.88;;;0.98;100.00
42859;BME280;28505;56.970;40.998;2023-12-20T11:03:18;97983.53;;;0.83;100.00
42859;BME280;28505;56.970;40.998;2023-12-20T11:09:07;97976.69;;;0.77;100.00
42859;BME280;28505;56.970;40.998;2023-12-20T11:25:25;98001.94;;;0.69;100.00
42859;BME280;28505;56.970;40.998;2023-12-20T11:30:55;97996.34;;;0.70;100.00
42859;BME280;28505;56.970;40.998;2023-12-20T11:36:19;97986.59;;;0.61;100.00
42859;BME280;28505;56.970;40.998;2023-12-20T11:41:45;97992.63;;;0.72;100.00
42859;BME280;28505;56.970;40.998;2023-12-20T11:47:13;97998.22;;;0.70;100.00
42859;BME280;28505;56.970;40.998;2023-12-20T11:52:38;98018.88;;;0.73;100.00
42859;BME280;28505;56.970;40.998;2023-12-20T11:58:11;98006.81;;;0.52;100.00
42859;BME280;28505;56.970;40.998;2023-12-20T12:03:42;98007.81;;;0.66;100.00
42859;BME280;28505;56.970;40.998;2023-12-20T12:09:12;98008.28;;;0.73;100.00
42859;BME280;28505;56.970;40.998;2023-12-20T12:14:41;98013.09;;;0.66;100.00
42859;BME280;28505;56.970;40.998;2023-12-20T12:20:11;98030.91;;;0.60;100.00
42859;BME280;28505;56.970;40.998;2023-12-20T12:25:43;98030.59;;;0.62;100.00
42859;BME280;28505;56.970;40.998;2023-12-20T12:31:13;98038.00;;;0.65;100.00
42859;BME280;28505;56.970;40.998;2023-12-20T12:36:39;98059.00;;;0.61;100.00
42859;BME280;28505;56.970;40.998;2023-12-20T12:42:02;98053.94;;;0.65;100.00
42859;BME280;28505;56.970;40.998;2023-12-20T12:47:25;98059.28;;;0.55;100.00
42859;BME280;28505;56.970;40.998;2023-12-20T12:52:47;98061.41;;;0.58;100.00
42859;BME280;28505;56.970;40.998;2023-12-20T12:58:10;98072.53;;;0.60;100.00
42859;BME280;28505;56.970;40.998;2023-12-20T13:03:32;98088.38;;;0.70;100.00
42859;BME280;28505;56.970;40.998;2023-12-20T13:08:56;98092.16;;;0.59;100.00
42859;BME280;28505;56.970;40.998;2023-12-20T13:14:18;98092.72;;;0.56;100.00
42859;BME280;28505;56.970;40.998;2023-12-20T13:19:42;98104.66;;;0.53;100.00
42859;BME280;28505;56.970;40.998;2023-12-20T13:25:05;98116.81;;;0.59;100.00
42859;BME280;28505;56.970;40.998;2023-12-20T13:30:30;98128.66;;;0.77;100.00
42859;BME280;28505;56.970;40.998;2023-12-20T13:35:53;98129.78;;;0.66;100.00
42859;BME280;28505;56.970;40.998;2023-12-20T13:41:16;98133.16;;;0.77;100.00
42859;BME280;28505;56.970;40.998;2023-12-20T13:46:41;98142.72;;;0.78;100.00
42859;BME280;28505;56.970;40.998;2023-12-20T13:52:03;98140.34;;;0.71;100.00
42859;BME280;28505;56.970;40.998;2023-12-20T13:57:26;98148.84;;;0.68;100.00
42859;BME280;28505;56.970;40.998;2023-12-20T14:03:08;98147.75;;;0.79;100.00
42859;BME280;28505;56.970;40.998;2023-12-20T14:08:32;98141.84;;;0.87;100.00
42859;BME280;28505;56.970;40.998;2023-12-20T14:13:55;98153.06;;;0.74;100.00
42859;BME280;28505;56.970;40.998;2023-12-20T14:19:26;98156.84;;;0.63;100.00
42859;BME280;28505;56.970;40.998;2023-12-20T14:24:50;98153.41;;;0.62;100.00
42859;BME280;28505;56.970;40.998;2023-12-20T14:30:22;98161.66;;;0.45;100.00
42859;BME280;28505;56.970;40.998;2023-12-20T14:35:53;98157.47;;;0.39;100.00
42859;BME280;28505;56.970;40.998;2023-12-20T14:41:22;98171.78;;;0.38;100.00
42859;BME280;28505;56.970;40.998;2023-12-20T14:46:55;98171.81;;;0.33;100.00
42859;BME280;28505;56.970;40.998;2023-12-20T14:52:21;98169.19;;;0.13;100.00
42859;BME280;28505;56.970;40.998;2023-12-20T14:57:43;98183.50;;;0.17;100.00
42859;BME280;28505;56.970;40.998;2023-12-20T15:03:06;98174.78;;;-0.04;100.00
42859;BME280;28505;56.970;40.998;2023-12-20T15:08:28;98187.50;;;-0.01;100.00
42859;BME280;28505;56.970;40.998;2023-12-20T15:13:51;98183.03;;;-0.26;100.00
42859;BME280;28505;56.970;40.998;2023-12-20T15:19:17;98204.50;;;-0.33;100.00
42859;BME280;28505;56.970;40.998;2023-12-20T15:24:40;98181.19;;;-0.61;100.00
42859;BME280;28505;56.970;40.998;2023-12-20T15:30:32;98223.00;;;-0.28;100.00
42859;BME280;28505;56.970;40.998;2023-12-20T15:35:56;98232.03;;;-0.29;100.00
42859;BME280;28505;56.970;40.998;2023-12-20T15:41:18;98233.06;;;-0.14;100.00
42859;BME280;28505;56.970;40.998;2023-12-20T15:46:41;98242.88;;;-0.15;100.00
42859;BME280;28505;56.970;40.998;2023-12-20T15:52:04;98242.88;;;-0.35;100.00
42859;BME280;28505;56.970;40.998;2023-12-20T15:57:27;98249.22;;;-0.31;100.00
42859;BME280;28505;56.970;40.998;2023-12-20T16:03:09;98245.22;;;-0.54;100.00
42859;BME280;28505;56.970;40.998;2023-12-20T16:08:45;98244.44;;;-0.55;100.00
42859;BME280;28505;56.970;40.998;2023-12-20T16:14:08;98232.75;;;-0.69;100.00
42859;BME280;28505;56.970;40.998;2023-12-20T16:19:39;98245.97;;;-0.69;100.00
42859;BME280;28505;56.970;40.998;2023-12-20T16:25:04;98248.16;;;-0.45;100.00
42859;BME280;28505;56.970;40.998;2023-12-20T16:30:27;98262.97;;;-0.55;100.00
42859;BME280;28505;56.970;40.998;2023-12-20T16:35:50;98276.75;;;-0.42;100.00
42859;BME280;28505;56.970;40.998;2023-12-20T16:41:13;98272.47;;;-0.64;100.00
42859;BME280;28505;56.970;40.998;2023-12-20T16:46:35;98286.53;;;-0.58;100.00
42859;BME280;28505;56.970;40.998;2023-12-20T16:51:58;98291.19;;;-0.86;100.00
42859;BME280;28505;56.970;40.998;2023-12-20T16:57:23;98302.00;;;-0.98;100.00
42859;BME280;28505;56.970;40.998;2023-12-20T17:02:47;98301.53;;;-0.79;100.00
42859;BME280;28505;56.970;40.998;2023-12-20T17:08:21;98302.63;;;-0.70;100.00
42859;BME280;28505;56.970;40.998;2023-12-20T17:13:54;98296.28;;;-0.64;100.00
42859;BME280;28505;56.970;40.998;2023-12-20T17:19:17;98287.84;;;-0.61;100.00
42859;BME280;28505;56.970;40.998;2023-12-20T17:24:40;98307.44;;;-0.52;100.00
42859;BME280;28505;56.970;40.998;2023-12-20T17:30:03;98310.66;;;-0.34;100.00
42859;BME280;28505;56.970;40.998;2023-12-20T17:35:26;98306.38;;;-0.51;100.00
42859;BME280;28505;56.970;40.998;2023-12-20T17:40:49;98320.16;;;-0.43;100.00
42859;BME280;28505;56.970;40.998;2023-12-20T17:46:13;98327.53;;;-0.56;100.00
42859;BME280;28505;56.970;40.998;2023-12-20T17:51:36;98341.34;;;-0.43;100.00
42859;BME280;28505;56.970;40.998;2023-12-20T17:56:59;98332.06;;;-0.46;100.00
42859;BME280;28505;56.970;40.998;2023-12-20T18:02:22;98342.88;;;-0.53;100.00
42859;BME280;28505;56.970;40.998;2023-12-20T18:07:44;98349.78;;;-0.57;100.00
42859;BME280;28505;56.970;40.998;2023-12-20T18:13:08;98363.50;;;-0.60;100.00
42859;BME280;28505;56.970;40.998;2023-12-20T18:18:31;98363.00;;;-0.62;100.00
42859;BME280;28505;56.970;40.998;2023-12-20T18:23:54;98351.78;;;-0.84;100.00
42859;BME280;28505;56.970;40.998;2023-12-20T18:29:28;98353.41;;;-0.78;100.00
42859;BME280;28505;56.970;40.998;2023-12-20T18:34:51;98361.34;;;-0.73;100.00
42859;BME280;28505;56.970;40.998;2023-12-20T18:40:14;98354.47;;;-0.69;100.00
42859;BME280;28505;56.970;40.998;2023-12-20T18:45:38;98361.09;;;-0.66;100.00
42859;BME280;28505;56.970;40.998;2023-12-20T18:51:01;98382.28;;;-0.72;100.00
42859;BME280;28505;56.970;40.998;2023-12-20T18:56:23;98382.06;;;-0.55;100.00
42859;BME280;28505;56.970;40.998;2023-12-20T19:01:45;98379.41;;;-0.65;100.00
42859;BME280;28505;56.970;40.998;2023-12-20T19:07:08;98372.22;;;-0.75;100.00
42859;BME280;28505;56.970;40.998;2023-12-20T19:12:31;98383.81;;;-0.81;100.00
42859;BME280;28505;56.970;40.998;2023-12-20T19:17:55;98397.00;;;-0.86;100.00
42859;BME280;28505;56.970;40.998;2023-12-20T19:23:18;98400.38;;;-1.01;100.00
42859;BME280;28505;56.970;40.998;2023-12-20T19:28:40;98396.13;;;-1.02;100.00
42859;BME280;28505;56.970;40.998;2023-12-20T19:34:05;98389.22;;;-1.08;100.00
42859;BME280;28505;56.970;40.998;2023-12-20T19:39:28;98405.84;;;-1.17;100.00
42859;BME280;28505;56.970;40.998;2023-12-20T19:44:51;98412.63;;;-1.27;100.00
42859;BME280;28505;56.970;40.998;2023-12-20T19:50:13;98406.78;;;-1.34;100.00
42859;BME280;28505;56.970;40.998;2023-12-20T19:55:37;98414.91;;;-1.73;100.00
42859;BME280;28505;56.970;40.998;2023-12-20T20:01:00;98422.72;;;-2.10;100.00
42859;BME280;28505;56.970;40.998;2023-12-20T20:06:22;98403.34;;;-1.94;100.00
42859;BME280;28505;56.970;40.998;2023-12-20T20:11:45;98411.00;;;-2.19;100.00
42859;BME280;28505;56.970;40.998;2023-12-20T20:17:08;98402.06;;;-2.18;100.00
42859;BME280;28505;56.970;40.998;2023-12-20T20:22:31;98406.31;;;-2.39;100.00
42859;BME280;28505;56.970;40.998;2023-12-20T20:27:53;98412.69;;;-2.35;100.00
42859;BME280;28505;56.970;40.998;2023-12-20T20:33:15;98415.91;;;-2.55;100.00
42859;BME280;28505;56.970;40.998;2023-12-20T20:38:38;98403.75;;;-2.95;100.00
42859;BME280;28505;56.970;40.998;2023-12-20T20:44:00;98415.94;;;-2.50;100.00
42859;BME280;28505;56.970;40.998;2023-12-20T20:49:22;98421.22;;;-2.50;100.00
42859;BME280;28505;56.970;40.998;2023-12-20T20:54:47;98430.34;;;-2.36;100.00
42859;BME280;28505;56.970;40.998;2023-12-20T21:00:10;98420.16;;;-2.49;100.00
42859;BME280;28505;56.970;40.998;2023-12-20T21:05:33;98416.41;;;-2.09;100.00
42859;BME280;28505;56.970;40.998;2023-12-20T21:10:55;98431.41;;;-2.37;100.00
42859;BME280;28505;56.970;40.998;2023-12-20T21:16:20;98425.94;;;-2.30;100.00
42859;BME280;28505;56.970;40.998;2023-12-20T21:21:43;98428.34;;;-2.28;100.00
42859;BME280;28505;56.970;40.998;2023-12-20T21:27:06;98435.63;;;-2.36;100.00
42859;BME280;28505;56.970;40.998;2023-12-20T21:32:29;98414.69;;;-2.20;100.00
42859;BME280;28505;56.970;40.998;2023-12-20T21:37:52;98421.03;;;-2.43;100.00
42859;BME280;28505;56.970;40.998;2023-12-20T21:43:14;98416.03;;;-2.45;100.00
42859;BME280;28505;56.970;40.998;2023-12-20T21:48:37;98402.63;;;-2.38;100.00
42859;BME280;28505;56.970;40.998;2023-12-20T21:53:59;98400.88;;;-2.54;100.00
42859;BME280;28505;56.970;40.998;2023-12-20T21:59:25;98390.50;;;-2.61;100.00
42859;BME280;28505;56.970;40.998;2023-12-20T22:04:49;98392.38;;;-2.34;100.00
42859;BME280;28505;56.970;40.998;2023-12-20T22:10:14;98384.25;;;-2.06;100.00
42859;BME280;28505;56.970;40.998;2023-12-20T22:15:38;98377.63;;;-2.30;100.00
42859;BME280;28505;56.970;40.998;2023-12-20T22:21:00;98372.84;;;-2.33;100.00
42859;BME280;28505;56.970;40.998;2023-12-20T22:26:23;98367.78;;;-2.40;100.00
42859;BME280;28505;56.970;40.998;2023-12-20T22:31:45;98358.56;;;-2.38;100.00
42859;BME280;28505;56.970;40.998;2023-12-20T22:37:08;98352.31;;;-2.31;100.00
42859;BME280;28505;56.970;40.998;2023-12-20T22:42:30;98343.78;;;-2.39;100.00
42859;BME280;28505;56.970;40.998;2023-12-20T22:47:52;98348.19;;;-2.22;100.00
42859;BME280;28505;56.970;40.998;2023-12-20T22:53:15;98355.31;;;-2.45;100.00
42859;BME280;28505;56.970;40.998;2023-12-20T22:58:37;98342.28;;;-2.29;100.00
42859;BME280;28505;56.970;40.998;2023-12-20T23:04:00;98342.97;;;-2.39;100.00
42859;BME280;28505;56.970;40.998;2023-12-20T23:09:22;98338.13;;;-2.25;100.00
42859;BME280;28505;56.970;40.998;2023-12-20T23:14:44;98347.13;;;-2.21;100.00
42859;BME280;28505;56.970;40.998;2023-12-20T23:20:07;98335.75;;;-2.22;100.00
42859;BME280;28505;56.970;40.998;2023-12-20T23:25:30;98319.34;;;-2.29;100.00
42859;BME280;28505;56.970;40.998;2023-12-20T23:30:52;98306.69;;;-1.95;100.00
42859;BME280;28505;56.970;40.998;2023-12-20T23:36:15;98319.03;;;-2.00;100.00
42859;BME280;28505;56.970;40.998;2023-12-20T23:41:37;98291.47;;;-1.82;100.00
42859;BME280;28505;56.970;40.998;2023-12-20T23:47:00;98292.00;;;-1.80;100.00
42859;BME280;28505;56.970;40.998;2023-12-20T23:52:23;98293.06;;;-1.81;100.00
42859;BME280;28505;56.970;40.998;2023-12-20T23:57:48;98296.19;;;-1.84;100.00
